createdAt,value
2017-08-24T00:00:17.943Z,1010.01
2017-08-24T00:01:17.938Z,1010.00
2017-08-24T00:02:17.937Z,1010.04
2017-08-24T00:03:17.931Z,1010.05
2017-08-24T00:04:17.930Z,1010.05
2017-08-24T00:05:17.925Z,1010.02
2017-08-24T00:06:17.924Z,1010.06
2017-08-24T00:07:17.918Z,1010.01
2017-08-24T00:08:17.922Z,1010.00
2017-08-24T00:09:17.919Z,1010.03
2017-08-24T00:10:17.912Z,1010.00
2017-08-24T00:11:17.912Z,1010.05
2017-08-24T00:12:17.908Z,1009.96
2017-08-24T00:13:17.902Z,1010.01
2017-08-24T00:14:17.902Z,1010.02
2017-08-24T00:15:17.898Z,1010.05
2017-08-24T00:16:17.889Z,1010.03
2017-08-24T00:17:17.887Z,1010.01
2017-08-24T00:18:17.883Z,1010.05
2017-08-24T00:19:17.882Z,1010.01
2017-08-24T00:20:17.875Z,1010.05
2017-08-24T00:21:17.876Z,1010.06
2017-08-24T00:22:17.870Z,1010.08
2017-08-24T00:23:17.868Z,1010.08
2017-08-24T00:24:17.869Z,1010.03
2017-08-24T00:25:17.864Z,1010.10
2017-08-24T00:26:17.862Z,1010.10
2017-08-24T00:27:17.858Z,1010.10
2017-08-24T00:28:17.849Z,1010.12
2017-08-24T00:29:17.848Z,1010.11
2017-08-24T00:30:17.842Z,1010.09
2017-08-24T00:31:17.842Z,1010.16
2017-08-24T00:32:17.843Z,1010.16
2017-08-24T00:33:17.837Z,1010.09
2017-08-24T00:34:17.836Z,1010.11
2017-08-24T00:35:17.832Z,1010.11
2017-08-24T00:36:17.829Z,1010.01
2017-08-24T00:37:17.824Z,1010.06
2017-08-24T00:38:17.824Z,1010.04
2017-08-24T00:39:17.819Z,1010.13
2017-08-24T00:40:17.811Z,1010.09
2017-08-24T00:41:17.810Z,1010.05
2017-08-24T00:42:17.805Z,1010.03
2017-08-24T00:43:17.804Z,1010.03
2017-08-24T00:44:17.801Z,1010.06
2017-08-24T00:45:17.797Z,1010.06
2017-08-24T00:46:17.793Z,1010.08
2017-08-24T00:47:17.789Z,1010.09
2017-08-24T00:48:17.789Z,1010.06
2017-08-24T00:49:17.789Z,1010.08
2017-08-24T00:50:17.784Z,1010.05
2017-08-24T00:51:17.781Z,1010.03
2017-08-24T00:52:17.778Z,1010.03
2017-08-24T00:53:17.777Z,1010.06
2017-08-24T00:54:17.771Z,1010.02
2017-08-24T00:55:17.770Z,1010.01
2017-08-24T00:56:17.768Z,1010.00
2017-08-24T00:57:17.758Z,1010.04
2017-08-24T00:58:17.755Z,1010.02
2017-08-24T00:59:17.753Z,1009.99
2017-08-24T01:00:17.748Z,1009.97
2017-08-24T01:01:17.748Z,1009.99
2017-08-24T01:02:17.742Z,1010.01
2017-08-24T01:03:17.740Z,1010.03
2017-08-24T01:04:17.743Z,1010.03
2017-08-24T01:05:17.737Z,1010.03
2017-08-24T01:06:17.736Z,1009.96
2017-08-24T01:07:17.731Z,1009.98
2017-08-24T01:08:17.728Z,1010.00
2017-08-24T01:09:17.725Z,1010.00
2017-08-24T01:10:17.723Z,1009.98
2017-08-24T01:11:17.719Z,1010.01
2017-08-24T01:12:17.710Z,1010.04
2017-08-24T01:13:17.710Z,1010.04
2017-08-24T01:14:17.704Z,1010.02
2017-08-24T01:15:17.705Z,1009.98
2017-08-24T01:16:17.700Z,1010.01
2017-08-24T01:17:17.695Z,1010.01
2017-08-24T01:18:17.695Z,1010.04
2017-08-24T01:19:17.690Z,1010.04
2017-08-24T01:20:17.690Z,1010.07
2017-08-24T01:21:17.693Z,1010.09
2017-08-24T01:22:17.683Z,1010.07
2017-08-24T01:23:17.683Z,1010.08
2017-08-24T01:24:17.678Z,1010.04
2017-08-24T01:25:17.676Z,1010.05
2017-08-24T01:26:17.672Z,1010.05
2017-08-24T01:27:17.670Z,1010.08
2017-08-24T01:28:17.662Z,1010.08
2017-08-24T01:29:17.658Z,1010.07
2017-08-24T01:30:17.656Z,1010.08
2017-08-24T01:31:17.652Z,1010.11
2017-08-24T01:32:17.652Z,1010.12
2017-08-24T01:33:17.650Z,1010.07
2017-08-24T01:34:17.646Z,1010.10
2017-08-24T01:35:17.645Z,1010.06
2017-08-24T01:36:17.637Z,1010.11
2017-08-24T01:37:17.633Z,1010.14
2017-08-24T01:38:17.632Z,1010.17
2017-08-24T01:39:17.627Z,1010.12
2017-08-24T01:40:17.625Z,1010.18
2017-08-24T01:41:17.619Z,1010.17
2017-08-24T01:42:17.618Z,1010.16
2017-08-24T01:43:17.612Z,1010.19
2017-08-24T01:44:17.613Z,1010.13
2017-08-24T01:45:17.612Z,1010.17
2017-08-24T01:46:17.609Z,1010.15
2017-08-24T01:47:17.606Z,1010.14
2017-08-24T01:48:17.600Z,1010.15
2017-08-24T01:49:17.598Z,1010.16
2017-08-24T01:50:17.596Z,1010.11
2017-08-24T01:51:17.592Z,1010.14
2017-08-24T01:52:17.584Z,1010.13
2017-08-24T01:53:17.582Z,1010.08
2017-08-24T01:54:17.578Z,1010.19
2017-08-24T01:55:17.577Z,1010.19
2017-08-24T01:56:17.571Z,1010.16
2017-08-24T01:57:17.569Z,1010.16
2017-08-24T01:58:17.564Z,1010.07
2017-08-24T01:59:17.563Z,1010.14
2017-08-24T02:00:17.563Z,1010.14
2017-08-24T02:01:17.558Z,1010.18
2017-08-24T02:02:17.557Z,1010.15
2017-08-24T02:03:17.553Z,1010.17
2017-08-24T02:04:17.550Z,1010.14
2017-08-24T02:05:17.546Z,1010.18
2017-08-24T02:06:17.543Z,1010.17
2017-08-24T02:07:17.541Z,1010.15
2017-08-24T02:08:17.531Z,1010.22
2017-08-24T02:09:17.525Z,1010.18
2017-08-24T02:10:17.525Z,1010.18
2017-08-24T02:11:17.521Z,1010.21
2017-08-24T02:12:17.519Z,1010.22
2017-08-24T02:13:17.512Z,1010.27
2017-08-24T02:14:17.512Z,1010.19
2017-08-24T02:15:17.506Z,1010.22
2017-08-24T02:16:17.507Z,1010.20
2017-08-24T02:17:17.509Z,1010.23
2017-08-24T02:18:17.500Z,1010.24
2017-08-24T02:19:17.501Z,1010.21
2017-08-24T02:20:17.494Z,1010.24
2017-08-24T02:21:17.490Z,1010.22
2017-08-24T02:22:17.487Z,1010.22
2017-08-24T02:23:17.482Z,1010.21
2017-08-24T02:24:17.474Z,1010.18
2017-08-24T02:25:17.473Z,1010.18
2017-08-24T02:26:17.467Z,1010.25
2017-08-24T02:27:17.467Z,1010.23
2017-08-24T02:28:17.460Z,1010.29
2017-08-24T02:29:17.458Z,1010.26
2017-08-24T02:30:17.453Z,1010.24
2017-08-24T02:31:17.453Z,1010.26
2017-08-24T02:32:17.452Z,1010.24
2017-08-24T02:33:17.447Z,1010.23
2017-08-24T02:34:17.443Z,1010.25
2017-08-24T02:35:17.438Z,1010.29
2017-08-24T02:36:17.436Z,1010.31
2017-08-24T02:37:17.427Z,1010.33
2017-08-24T02:38:17.424Z,1010.35
2017-08-24T02:39:17.419Z,1010.39
2017-08-24T02:40:17.420Z,1010.38
2017-08-24T02:41:17.418Z,1010.43
2017-08-24T02:42:17.412Z,1010.41
2017-08-24T02:43:17.410Z,1010.43
2017-08-24T02:44:17.403Z,1010.43
2017-08-24T02:45:17.401Z,1010.40
2017-08-24T02:46:17.395Z,1010.40
2017-08-24T02:47:17.394Z,1010.48
2017-08-24T02:48:17.385Z,1010.49
2017-08-24T02:49:17.383Z,1010.51
2017-08-24T02:50:17.377Z,1010.48
2017-08-24T02:51:17.373Z,1010.50
2017-08-24T02:52:17.366Z,1010.58
2017-08-24T02:53:17.364Z,1010.54
2017-08-24T02:54:17.366Z,1010.57
2017-08-24T02:55:17.356Z,1010.57
2017-08-24T02:56:17.354Z,1010.53
2017-08-24T02:57:17.349Z,1010.62
2017-08-24T02:58:17.348Z,1010.57
2017-08-24T02:59:17.342Z,1010.64
2017-08-24T03:00:17.337Z,1010.57
2017-08-24T03:01:17.332Z,1010.55
2017-08-24T03:02:17.330Z,1010.61
2017-08-24T03:03:17.323Z,1010.61
2017-08-24T03:04:17.314Z,1010.65
2017-08-24T03:05:17.313Z,1010.65
2017-08-24T03:06:17.306Z,1010.68
2017-08-24T03:07:17.306Z,1010.70
2017-08-24T03:08:17.299Z,1010.70
2017-08-24T03:09:17.293Z,1010.70
2017-08-24T03:10:17.291Z,1010.70
2017-08-24T03:11:17.285Z,1010.68
2017-08-24T03:12:17.289Z,1010.76
2017-08-24T03:13:17.282Z,1010.69
2017-08-24T03:14:17.276Z,1010.72
2017-08-24T03:15:17.273Z,1010.68
2017-08-24T03:16:17.267Z,1010.70
2017-08-24T03:17:17.266Z,1010.69
2017-08-24T03:18:17.259Z,1010.66
2017-08-24T03:19:17.255Z,1010.73
2017-08-24T03:20:17.248Z,1010.70
2017-08-24T03:21:17.241Z,1010.70
2017-08-24T03:22:17.241Z,1010.72
2017-08-24T03:23:17.235Z,1010.68
2017-08-24T03:24:17.233Z,1010.73
2017-08-24T03:25:17.225Z,1010.76
2017-08-24T03:26:17.221Z,1010.79
2017-08-24T03:27:17.218Z,1010.77
2017-08-24T03:28:17.217Z,1010.72
2017-08-24T03:29:17.211Z,1010.76
2017-08-24T03:30:17.212Z,1010.75
2017-08-24T03:31:17.202Z,1010.79
2017-08-24T03:32:17.201Z,1010.77
2017-08-24T03:33:17.194Z,1010.79
2017-08-24T03:34:17.191Z,1010.77
2017-08-24T03:35:17.185Z,1010.83
2017-08-24T03:36:17.175Z,1010.80
2017-08-24T03:37:17.174Z,1010.80
2017-08-24T03:38:17.167Z,1010.78
2017-08-24T03:39:17.164Z,1010.82
2017-08-24T03:40:17.164Z,1010.76
2017-08-24T03:41:17.159Z,1010.83
2017-08-24T03:42:17.156Z,1010.84
2017-08-24T03:43:17.148Z,1010.83
2017-08-24T03:44:17.140Z,1010.92
2017-08-24T03:45:17.138Z,1010.88
2017-08-24T03:46:17.131Z,1010.88
2017-08-24T03:47:17.131Z,1010.94
2017-08-24T03:48:17.122Z,1010.95
2017-08-24T03:49:17.119Z,1010.96
2017-08-24T03:50:17.114Z,1010.97
2017-08-24T03:51:17.110Z,1010.90
2017-08-24T03:52:17.110Z,1010.97
2017-08-24T03:53:17.103Z,1010.91
2017-08-24T03:54:17.100Z,1010.90
2017-08-24T03:55:17.095Z,1010.88
2017-08-24T03:56:17.090Z,1010.88
2017-08-24T03:57:17.087Z,1010.86
2017-08-24T03:58:17.081Z,1010.86
2017-08-24T03:59:17.079Z,1010.85
2017-08-24T04:00:17.070Z,1010.86
2017-08-24T04:01:17.063Z,1010.90
2017-08-24T04:02:17.060Z,1010.89
2017-08-24T04:03:17.055Z,1010.90
2017-08-24T04:04:17.050Z,1010.91
2017-08-24T04:05:17.045Z,1010.88
2017-08-24T04:06:17.042Z,1010.85
2017-08-24T04:07:17.037Z,1010.89
2017-08-24T04:08:17.036Z,1010.91
2017-08-24T04:09:17.033Z,1010.91
2017-08-24T04:10:17.026Z,1010.89
2017-08-24T04:11:17.024Z,1010.87
2017-08-24T04:12:17.018Z,1010.86
2017-08-24T04:13:17.013Z,1010.84
2017-08-24T04:14:17.010Z,1010.93
2017-08-24T04:15:17.004Z,1010.91
2017-08-24T04:16:16.994Z,1010.94
2017-08-24T04:17:16.991Z,1010.94
2017-08-24T04:18:16.984Z,1011.00
2017-08-24T04:19:16.981Z,1010.98
2017-08-24T04:20:16.975Z,1011.03
2017-08-24T04:21:16.977Z,1011.00
2017-08-24T04:22:16.968Z,1011.04
2017-08-24T04:23:16.964Z,1011.05
2017-08-24T04:24:16.962Z,1011.06
2017-08-24T04:25:16.957Z,1011.06
2017-08-24T04:26:16.953Z,1011.10
2017-08-24T04:27:16.947Z,1011.09
2017-08-24T04:28:16.939Z,1011.08
2017-08-24T04:29:16.942Z,1011.12
2017-08-24T04:30:16.931Z,1011.11
2017-08-24T04:31:16.928Z,1011.09
2017-08-24T04:32:16.919Z,1011.10
2017-08-24T04:33:16.913Z,1011.12
2017-08-24T04:34:16.912Z,1011.14
2017-08-24T04:35:16.902Z,1011.13
2017-08-24T04:36:16.898Z,1011.20
2017-08-24T04:37:16.895Z,1011.14
2017-08-24T04:38:16.890Z,1011.22
2017-08-24T04:39:16.882Z,1011.20
2017-08-24T04:40:16.881Z,1011.21
2017-08-24T04:41:16.877Z,1011.25
2017-08-24T04:42:16.872Z,1011.33
2017-08-24T04:43:16.868Z,1011.32
2017-08-24T04:44:16.859Z,1011.36
2017-08-24T04:45:16.852Z,1011.41
2017-08-24T04:46:16.848Z,1011.36
2017-08-24T04:47:16.843Z,1011.37
2017-08-24T04:48:16.840Z,1011.39
2017-08-24T04:49:16.842Z,1011.39
2017-08-24T04:50:16.832Z,1011.43
2017-08-24T04:51:16.829Z,1011.48
2017-08-24T04:52:16.820Z,1011.46
2017-08-24T04:53:16.817Z,1011.51
2017-08-24T04:54:16.811Z,1011.51
2017-08-24T04:55:16.807Z,1011.44
2017-08-24T04:56:16.798Z,1011.41
2017-08-24T04:57:16.792Z,1011.40
2017-08-24T04:58:16.791Z,1011.34
2017-08-24T04:59:16.783Z,1011.33
2017-08-24T05:00:16.777Z,1011.34
2017-08-24T05:01:16.778Z,1011.37
2017-08-24T05:02:16.767Z,1011.31
2017-08-24T05:03:16.764Z,1011.34
2017-08-24T05:04:16.764Z,1011.32
2017-08-24T05:05:16.756Z,1011.36
2017-08-24T05:06:16.758Z,1011.31
2017-08-24T05:07:16.748Z,1011.42
2017-08-24T05:08:16.744Z,1011.47
2017-08-24T05:09:16.738Z,1011.55
2017-08-24T05:10:16.735Z,1011.54
2017-08-24T05:11:16.728Z,1011.54
2017-08-24T05:12:16.719Z,1011.50
2017-08-24T05:13:16.716Z,1011.52
2017-08-24T05:14:16.709Z,1011.54
2017-08-24T05:15:16.706Z,1011.46
2017-08-24T05:16:16.701Z,1011.45
2017-08-24T05:17:16.695Z,1011.45
2017-08-24T05:18:16.692Z,1011.49
2017-08-24T05:19:16.686Z,1011.51
2017-08-24T05:20:16.689Z,1011.51
2017-08-24T05:21:16.682Z,1011.48
2017-08-24T05:22:16.675Z,1011.55
2017-08-24T05:23:16.671Z,1011.55
2017-08-24T05:24:16.667Z,1011.53
2017-08-24T05:25:16.661Z,1011.56
2017-08-24T05:26:16.654Z,1011.54
2017-08-24T05:27:16.653Z,1011.51
2017-08-24T05:28:16.642Z,1011.50
2017-08-24T05:29:16.636Z,1011.53
2017-08-24T05:30:16.634Z,1011.53
2017-08-24T05:31:16.627Z,1011.50
2017-08-24T05:32:16.621Z,1011.54
2017-08-24T05:33:16.618Z,1011.50
2017-08-24T05:34:16.613Z,1011.50
2017-08-24T05:35:16.610Z,1011.47
2017-08-24T05:36:16.609Z,1011.52
2017-08-24T05:37:16.602Z,1011.54
2017-08-24T05:38:16.601Z,1011.55
2017-08-24T05:39:16.594Z,1011.56
2017-08-24T05:40:16.590Z,1011.61
2017-08-24T05:41:16.583Z,1011.58
2017-08-24T05:42:16.581Z,1011.57
2017-08-24T05:43:16.575Z,1011.56
2017-08-24T05:44:16.564Z,1011.58
2017-08-24T05:45:16.565Z,1011.57
2017-08-24T05:46:16.557Z,1011.62
2017-08-24T05:47:16.554Z,1011.60
2017-08-24T05:48:16.554Z,1011.59
2017-08-24T05:49:16.547Z,1011.63
2017-08-24T05:50:16.544Z,1011.60
2017-08-24T05:51:16.539Z,1011.64
2017-08-24T05:52:16.528Z,1011.64
2017-08-24T05:53:16.526Z,1011.63
2017-08-24T05:54:16.520Z,1011.66
2017-08-24T05:55:16.519Z,1011.70
2017-08-24T05:56:16.512Z,1011.67
2017-08-24T05:57:16.509Z,1011.62
2017-08-24T05:58:16.503Z,1011.68
2017-08-24T05:59:16.502Z,1011.77
2017-08-24T06:00:16.501Z,1011.70
2017-08-24T06:01:16.495Z,1011.77
2017-08-24T06:02:16.493Z,1011.77
2017-08-24T06:03:16.487Z,1011.80
2017-08-24T06:04:16.482Z,1011.82
2017-08-24T06:05:16.481Z,1011.80
2017-08-24T06:06:16.475Z,1011.84
2017-08-24T06:07:16.477Z,1011.84
2017-08-24T06:08:16.463Z,1011.91
2017-08-24T06:09:16.458Z,1011.93
2017-08-24T06:10:16.457Z,1011.90
2017-08-24T06:11:16.451Z,1011.90
2017-08-24T06:12:16.448Z,1011.88
2017-08-24T06:13:16.441Z,1011.94
2017-08-24T06:14:16.441Z,1011.94
2017-08-24T06:15:16.435Z,1011.97
2017-08-24T06:16:16.433Z,1012.00
2017-08-24T06:17:16.432Z,1012.01
2017-08-24T06:18:16.427Z,1011.94
2017-08-24T06:19:16.425Z,1011.93
2017-08-24T06:20:16.419Z,1012.01
2017-08-24T06:21:16.413Z,1012.06
2017-08-24T06:22:16.412Z,1012.04
2017-08-24T06:23:16.442Z,1012.00
2017-08-24T06:24:16.396Z,1011.99
2017-08-24T06:25:16.395Z,1011.98
2017-08-24T06:26:16.389Z,1011.98
2017-08-24T06:27:16.389Z,1011.92
2017-08-24T06:28:16.381Z,1012.01
2017-08-24T06:29:16.380Z,1012.02
2017-08-24T06:30:16.374Z,1012.03
2017-08-24T06:31:16.373Z,1011.97
2017-08-24T06:32:16.372Z,1012.03
2017-08-24T06:33:16.366Z,1012.04
2017-08-24T06:34:16.365Z,1012.04
2017-08-24T06:35:16.360Z,1012.02
2017-08-24T06:36:16.354Z,1012.05
2017-08-24T06:37:16.353Z,1012.11
2017-08-24T06:38:16.347Z,1012.14
2017-08-24T06:39:16.346Z,1012.27
2017-08-24T06:40:16.344Z,1012.16
2017-08-24T06:41:16.331Z,1012.23
2017-08-24T06:42:16.332Z,1012.17
2017-08-24T06:43:16.326Z,1012.16
2017-08-24T06:44:16.325Z,1012.13
2017-08-24T06:45:16.321Z,1012.17
2017-08-24T06:46:16.325Z,1012.12
2017-08-24T06:47:16.314Z,1012.13
2017-08-24T06:48:16.315Z,1012.17
2017-08-24T06:49:16.316Z,1012.15
2017-08-24T06:50:16.311Z,1012.13
2017-08-24T06:51:16.311Z,1012.14
2017-08-24T06:52:16.306Z,1012.08
2017-08-24T06:53:16.306Z,1012.12
2017-08-24T06:54:16.301Z,1012.10
2017-08-24T06:55:16.301Z,1012.10
2017-08-24T06:56:16.294Z,1012.13
2017-08-24T06:57:16.289Z,1012.16
2017-08-24T06:58:16.289Z,1012.17
2017-08-24T06:59:16.284Z,1012.19
2017-08-24T07:00:16.285Z,1012.19
2017-08-24T07:01:16.288Z,1012.18
2017-08-24T07:02:16.279Z,1012.18
2017-08-24T07:03:16.277Z,1012.20
2017-08-24T07:04:16.281Z,1012.22
2017-08-24T07:05:16.278Z,1012.22
2017-08-24T07:06:16.276Z,1012.25
2017-08-24T07:07:16.274Z,1012.20
2017-08-24T07:08:16.270Z,1012.23
2017-08-24T07:09:16.266Z,1012.20
2017-08-24T07:10:16.266Z,1012.22
2017-08-24T07:11:16.262Z,1012.23
2017-08-24T07:12:16.255Z,1012.27
2017-08-24T07:13:16.255Z,1012.24
2017-08-24T07:14:16.251Z,1012.22
2017-08-24T07:15:16.250Z,1012.22
2017-08-24T07:16:16.245Z,1012.27
2017-08-24T07:17:16.246Z,1012.30
2017-08-24T07:18:16.242Z,1012.26
2017-08-24T07:19:16.242Z,1012.29
2017-08-24T07:20:16.242Z,1012.34
2017-08-24T07:21:16.238Z,1012.33
2017-08-24T07:22:16.239Z,1012.39
2017-08-24T07:23:16.234Z,1012.30
2017-08-24T07:25:16.251Z,1012.42
2017-08-24T07:26:16.230Z,1012.46
2017-08-24T07:27:16.225Z,1012.38
2017-08-24T07:28:16.224Z,1012.39
2017-08-24T07:29:16.218Z,1012.34
2017-08-24T07:30:16.217Z,1012.38
2017-08-24T07:31:16.215Z,1012.40
2017-08-24T07:32:16.211Z,1012.41
2017-08-24T07:33:16.211Z,1012.39
2017-08-24T07:34:16.206Z,1012.46
2017-08-24T07:35:16.207Z,1012.48
2017-08-24T07:36:16.203Z,1012.55
2017-08-24T07:37:16.205Z,1012.52
2017-08-24T07:38:16.205Z,1012.55
2017-08-24T07:39:16.202Z,1012.54
2017-08-24T07:40:16.201Z,1012.49
2017-08-24T07:41:16.200Z,1012.44
2017-08-24T07:42:16.197Z,1012.47
2017-08-24T07:43:16.210Z,1012.50
2017-08-24T07:44:16.195Z,1012.57
2017-08-24T07:45:16.188Z,1012.58
2017-08-24T07:46:16.189Z,1012.58
2017-08-24T07:47:16.311Z,1012.56
2017-08-24T07:48:16.339Z,1012.53
2017-08-24T07:49:16.289Z,1012.56
2017-08-24T07:50:16.181Z,1012.57
2017-08-24T07:51:16.178Z,1012.53
2017-08-24T07:52:16.178Z,1012.51
2017-08-24T07:53:16.181Z,1012.53
2017-08-24T07:54:16.177Z,1012.63
2017-08-24T07:55:16.179Z,1012.62
2017-08-24T07:56:16.174Z,1012.60
2017-08-24T07:57:16.168Z,1012.61
2017-08-24T07:58:16.171Z,1012.62
2017-08-24T07:59:16.165Z,1012.70
2017-08-24T08:00:16.165Z,1012.65
2017-08-24T08:01:16.167Z,1012.67
2017-08-24T08:02:16.164Z,1012.69
2017-08-24T08:03:16.170Z,1012.71
2017-08-24T08:04:16.160Z,1012.84
2017-08-24T08:05:16.160Z,1012.85
2017-08-24T08:06:16.156Z,1012.82
2017-08-24T08:07:16.157Z,1012.91
2017-08-24T08:08:16.159Z,1012.80
2017-08-24T08:09:16.147Z,1012.77
2017-08-24T08:10:16.148Z,1012.83
2017-08-24T08:11:16.146Z,1013.04
2017-08-24T08:12:16.146Z,1013.01
2017-08-24T08:13:16.145Z,1012.98
2017-08-24T08:14:16.142Z,1013.03
2017-08-24T08:15:16.142Z,1013.04
2017-08-24T08:16:16.143Z,1012.93
2017-08-24T08:17:16.144Z,1012.98
2017-08-24T08:18:16.145Z,1012.96
2017-08-24T08:19:16.143Z,1013.10
2017-08-24T08:20:16.143Z,1012.96
2017-08-24T08:22:16.143Z,1013.09
2017-08-24T08:23:16.144Z,1013.00
2017-08-24T08:24:16.140Z,1012.96
2017-08-24T08:25:16.144Z,1013.01
2017-08-24T08:26:16.143Z,1012.91
2017-08-24T08:28:16.138Z,1012.89
2017-08-24T08:29:16.141Z,1012.90
2017-08-24T08:30:16.139Z,1012.99
2017-08-24T08:32:16.141Z,1013.02
2017-08-24T08:33:16.143Z,1012.99
2017-08-24T08:34:16.141Z,1013.01
2017-08-24T08:35:16.149Z,1012.92
2017-08-24T08:36:16.149Z,1012.98
2017-08-24T08:37:16.148Z,1012.94
2017-08-24T08:38:16.150Z,1012.99
2017-08-24T08:39:16.147Z,1012.98
2017-08-24T08:40:16.150Z,1012.94
2017-08-24T08:41:16.148Z,1012.91
2017-08-24T08:42:16.151Z,1013.04
2017-08-24T08:43:16.152Z,1012.99
2017-08-24T08:44:16.145Z,1013.05
2017-08-24T08:45:16.148Z,1013.02
2017-08-24T08:46:16.146Z,1013.03
2017-08-24T08:47:16.148Z,1013.07
2017-08-24T08:48:16.148Z,1013.03
2017-08-24T08:49:16.145Z,1013.03
2017-08-24T08:50:16.151Z,1013.01
2017-08-24T08:52:16.146Z,1013.08
2017-08-24T08:53:16.150Z,1013.21
2017-08-24T08:54:16.151Z,1013.17
2017-08-24T08:55:16.149Z,1013.13
2017-08-24T08:56:16.150Z,1013.24
2017-08-24T08:57:16.147Z,1013.20
2017-08-24T08:58:16.149Z,1013.23
2017-08-24T08:59:16.147Z,1013.12
2017-08-24T09:00:16.148Z,1013.20
2017-08-24T09:01:16.142Z,1013.17
2017-08-24T09:02:16.141Z,1013.25
2017-08-24T09:03:16.149Z,1013.24
2017-08-24T09:04:16.139Z,1013.25
2017-08-24T09:05:16.143Z,1013.22
2017-08-24T09:06:16.144Z,1013.22
2017-08-24T09:07:16.143Z,1013.24
2017-08-24T09:08:16.146Z,1013.12
2017-08-24T09:09:16.138Z,1013.18
2017-08-24T09:10:16.136Z,1013.22
2017-08-24T09:11:16.139Z,1013.20
2017-08-24T09:12:16.134Z,1013.21
2017-08-24T09:13:16.137Z,1013.12
2017-08-24T09:14:16.135Z,1013.31
2017-08-24T09:15:16.138Z,1013.29
2017-08-24T09:16:16.134Z,1013.22
2017-08-24T09:17:16.138Z,1013.16
2017-08-24T09:18:16.140Z,1013.12
2017-08-24T09:19:16.138Z,1013.24
2017-08-24T09:20:16.142Z,1013.19
2017-08-24T09:21:16.141Z,1013.23
2017-08-24T09:22:16.138Z,1013.44
2017-08-24T09:23:16.140Z,1013.45
2017-08-24T09:24:16.137Z,1013.51
2017-08-24T09:25:16.131Z,1013.53
2017-08-24T09:26:16.135Z,1013.77
2017-08-24T09:27:16.134Z,1013.46
2017-08-24T09:28:16.136Z,1013.62
2017-08-24T09:29:16.134Z,1013.53
2017-08-24T09:30:16.138Z,1013.34
2017-08-24T09:31:16.137Z,1013.36
2017-08-24T09:32:16.140Z,1013.49
2017-08-24T09:33:16.149Z,1013.48
2017-08-24T09:34:16.147Z,1013.48
2017-08-24T09:35:16.150Z,1014.06
2017-08-24T09:36:16.149Z,1013.49
2017-08-24T09:37:16.151Z,1013.50
2017-08-24T09:38:16.156Z,1014.04
2017-08-24T09:39:16.158Z,1013.53
2017-08-24T09:40:16.161Z,1013.46
2017-08-24T09:41:16.166Z,1013.56
2017-08-24T09:42:16.166Z,1013.52
2017-08-24T09:43:16.167Z,1013.81
2017-08-24T09:44:16.171Z,1013.54
2017-08-24T09:45:16.173Z,1013.52
2017-08-24T09:46:16.175Z,1013.45
2017-08-24T09:47:16.180Z,1013.42
2017-08-24T09:48:16.182Z,1013.37
2017-08-24T09:49:16.190Z,1013.40
2017-08-24T09:50:16.195Z,1013.76
2017-08-24T09:51:16.198Z,1013.81
2017-08-24T09:52:16.203Z,1013.47
2017-08-24T09:53:16.206Z,1013.59
2017-08-24T09:54:16.208Z,1013.42
2017-08-24T09:55:16.215Z,1013.37
2017-08-24T09:56:16.217Z,1013.39
2017-08-24T09:57:16.218Z,1013.63
2017-08-24T09:58:16.250Z,1013.53
2017-08-24T09:59:16.229Z,1013.88
2017-08-24T10:00:16.234Z,1013.78
2017-08-24T10:01:16.238Z,1013.85
2017-08-24T10:02:16.246Z,1013.55
2017-08-24T10:03:16.249Z,1013.54
2017-08-24T10:04:16.256Z,1013.76
2017-08-24T10:05:16.266Z,1013.78
2017-08-24T10:06:16.272Z,1013.72
2017-08-24T10:07:16.281Z,1013.80
2017-08-24T10:08:16.283Z,1013.54
2017-08-24T10:09:16.290Z,1013.83
2017-08-24T10:10:16.297Z,1013.88
2017-08-24T10:11:16.303Z,1013.87
2017-08-24T10:12:16.311Z,1013.91
2017-08-24T10:13:16.325Z,1013.86
2017-08-24T10:14:16.332Z,1013.86
2017-08-24T10:15:16.344Z,1013.96
2017-08-24T10:16:16.350Z,1014.02
2017-08-24T10:17:16.362Z,1013.95
2017-08-24T10:18:16.371Z,1013.93
2017-08-24T10:19:16.385Z,1013.98
2017-08-24T10:20:16.393Z,1013.94
2017-08-24T10:21:16.401Z,1013.80
2017-08-24T10:22:16.415Z,1013.94
2017-08-24T10:23:16.424Z,1013.86
2017-08-24T10:24:16.437Z,1014.00
2017-08-24T10:25:16.452Z,1013.94
2017-08-24T10:26:16.461Z,1013.99
2017-08-24T10:27:16.476Z,1014.07
2017-08-24T10:28:16.485Z,1013.92
2017-08-24T10:29:16.502Z,1013.83
2017-08-24T10:30:16.546Z,1013.82
2017-08-24T10:31:16.601Z,1013.81
2017-08-24T10:32:16.542Z,1013.75
2017-08-24T10:33:16.552Z,1013.66
2017-08-24T10:34:16.566Z,1013.68
2017-08-24T10:35:16.577Z,1013.75
2017-08-24T10:36:16.590Z,1013.74
2017-08-24T10:37:16.602Z,1013.79
2017-08-24T10:38:16.609Z,1013.76
2017-08-24T10:39:16.622Z,1013.74
2017-08-24T10:40:16.629Z,1013.95
2017-08-24T10:41:16.641Z,1013.80
2017-08-24T10:42:16.654Z,1013.76
2017-08-24T10:43:16.664Z,1013.72
2017-08-24T10:44:16.675Z,1013.73
2017-08-24T10:45:16.691Z,1013.69
2017-08-24T10:46:16.700Z,1013.72
2017-08-24T10:47:16.713Z,1013.57
2017-08-24T10:48:16.721Z,1013.51
2017-08-24T10:49:16.732Z,1013.55
2017-08-24T10:50:16.742Z,1013.70
2017-08-24T10:51:16.754Z,1013.57
2017-08-24T10:52:16.762Z,1013.61
2017-08-24T10:53:16.768Z,1013.76
2017-08-24T10:54:16.778Z,1013.61
2017-08-24T10:55:16.786Z,1013.68
2017-08-24T10:56:16.798Z,1013.50
2017-08-24T10:57:16.808Z,1013.52
2017-08-24T10:58:16.814Z,1013.54
2017-08-24T10:59:16.829Z,1013.54
2017-08-24T11:00:16.833Z,1013.49
2017-08-24T11:01:16.847Z,1013.53
2017-08-24T11:02:16.859Z,1013.61
2017-08-24T11:03:16.865Z,1013.52
2017-08-24T11:04:16.876Z,1013.61
2017-08-24T11:05:16.881Z,1013.67
2017-08-24T11:06:16.896Z,1013.58
2017-08-24T11:07:16.899Z,1013.60
2017-08-24T11:08:16.918Z,1013.54
2017-08-24T11:09:16.912Z,1013.72
2017-08-24T11:10:16.919Z,1013.62
2017-08-24T11:11:16.958Z,1013.71
2017-08-24T11:12:16.940Z,1013.68
2017-08-24T11:13:16.943Z,1013.69
2017-08-24T11:14:16.954Z,1013.79
2017-08-24T11:15:16.961Z,1013.80
2017-08-24T11:16:16.973Z,1013.69
2017-08-24T11:17:16.986Z,1013.79
2017-08-24T11:18:16.994Z,1013.70
2017-08-24T11:19:17.007Z,1013.80
2017-08-24T11:20:17.016Z,1013.69
2017-08-24T11:21:17.028Z,1013.71
2017-08-24T11:22:17.037Z,1013.70
2017-08-24T11:23:17.049Z,1013.75
2017-08-24T11:24:17.059Z,1013.78
2017-08-24T11:25:17.066Z,1013.74
2017-08-24T11:26:17.088Z,1013.63
2017-08-24T11:27:17.089Z,1013.59
2017-08-24T11:28:17.100Z,1013.56
2017-08-24T11:29:17.112Z,1013.54
2017-08-24T11:30:17.122Z,1013.56
2017-08-24T11:31:17.142Z,1013.56
2017-08-24T11:32:17.141Z,1013.59
2017-08-24T11:33:17.157Z,1013.51
2017-08-24T11:34:17.179Z,1013.52
2017-08-24T11:35:17.179Z,1013.48
2017-08-24T11:36:17.189Z,1013.55
2017-08-24T11:37:17.197Z,1013.53
2017-08-24T11:38:17.207Z,1013.56
2017-08-24T11:39:17.214Z,1013.57
2017-08-24T11:40:17.223Z,1013.52
2017-08-24T11:41:17.227Z,1013.51
2017-08-24T11:42:17.232Z,1013.52
2017-08-24T11:43:17.244Z,1013.45
2017-08-24T11:44:17.247Z,1013.44
2017-08-24T11:45:17.291Z,1013.43
2017-08-24T11:46:17.298Z,1013.50
2017-08-24T11:47:17.270Z,1013.43
2017-08-24T11:48:17.278Z,1013.42
2017-08-24T11:49:17.289Z,1013.42
2017-08-24T11:50:17.294Z,1013.46
2017-08-24T11:51:17.300Z,1013.46
2017-08-24T11:52:17.307Z,1013.43
2017-08-24T11:53:17.312Z,1013.43
2017-08-24T11:54:17.322Z,1013.37
2017-08-24T11:55:17.324Z,1013.42
2017-08-24T11:56:17.335Z,1013.39
2017-08-24T11:57:17.329Z,1013.40
2017-08-24T11:58:17.335Z,1013.42
2017-08-24T11:59:17.340Z,1013.37
2017-08-24T12:00:17.345Z,1013.36
2017-08-24T12:01:17.350Z,1013.40
2017-08-24T12:02:17.353Z,1013.37
2017-08-24T12:03:17.360Z,1013.38
2017-08-24T12:04:17.362Z,1013.36
2017-08-24T12:05:17.370Z,1013.32
2017-08-24T12:06:17.378Z,1013.32
2017-08-24T12:07:17.381Z,1013.31
2017-08-24T12:08:17.384Z,1013.26
2017-08-24T12:09:17.387Z,1013.28
2017-08-24T12:10:17.395Z,1013.30